Time;durP1;ratioP1;P1;durP2;ratioP2;P2;SDS_P1;SDS_P2;PMS_P1;PMS_P2;Temp;Humidity;BMP_temperature;BMP_pressure;BME280_temperature;BME280_humidity;BME280_pressure;Samples;Min_cycle;Max_cycle;Signal;HPM_P1;HPM_P2
2023/08/02 02:55:12;;;;;;;;;2.33;2.33;;;;;;;;3852835;27;8635043;-94
2023/08/02 02:57:52;;;;;;;;;;;;;;;;;;;;;
2023/08/02 06:54:20;;;;;;;;;0.67;0.67;;;;;;;;5850789;24;45821;31
2023/08/02 08:59:01;;;;;;;;;1.00;1.00;;;;;;;;4724483;29;45502;-93
2023/08/02 09:01:55;;;;;;;;;1.67;1.67;;;;;;;;4768133;29;47396;-93
2023/08/02 10:24:48;;;;;;;;;0.00;0.00;;;;;;;;5745546;24;47348;-96
2023/08/02 10:28:31;;;;;;;;;;;;;;;;;;;;;
2023/08/02 10:37:01;;;;;;;;;0.00;0.00;;;;;;;;4770737;29;45523;-95
2023/08/02 10:39:52;;;;;;;;;0.00;0.00;;;;;;;;4770747;29;45533;-95
2023/08/02 10:42:29;;;;;;;;;0.00;0.00;;;;;;;;4754329;29;46960;-94
2023/08/02 10:48:09;;;;;;;;;0.00;0.00;;;;;;;;4722947;29;45307;-94
2023/08/02 10:51:11;;;;;;;;;0.00;0.00;;;;;;;;4738379;29;46725;-94
2023/08/02 10:53:39;;;;;;;;;0.67;0.00;;;;;;;;4741388;29;47232;-92
2023/08/02 10:56:08;;;;;;;;;0.00;0.00;;;;;;;;4757595;29;45456;-92
2023/08/02 10:58:49;;;;;;;;;0.00;0.00;;;;;;;;4755430;29;45658;-92
2023/08/02 11:01:14;;;;;;;;;0.00;0.00;;;;;;;;4742718;29;45249;-92
2023/08/02 11:15:28;;;;;;;;;0.00;0.00;;;;;;;;4804422;29;45732;-95
2023/08/02 11:17:59;;;;;;;;;0.00;0.00;;;;;;;;4781870;29;45427;-94
2023/08/02 11:20:36;;;;;;;;;0.00;0.00;;;;;;;;4794622;29;46122;-95
2023/08/02 11:23:02;;;;;;;;;0.00;0.00;;;;;;;;4795620;29;45491;-93
2023/08/02 11:25:28;;;;;;;;;0.00;0.00;;;;;;;;4785933;29;47053;-94
2023/08/02 11:28:03;;;;;;;;;0.00;0.00;;;;;;;;4795128;29;45219;-95
2023/08/02 11:30:28;;;;;;;;;0.00;0.00;;;;;;;;4795478;29;45250;-95
2023/08/02 11:32:53;;;;;;;;;0.00;0.00;;;;;;;;4787592;29;45522;-94
2023/08/02 11:35:19;;;;;;;;;0.00;0.00;;;;;;;;4784415;29;47579;-95
2023/08/02 11:37:45;;;;;;;;;0.00;0.00;;;;;;;;4795061;29;45376;-95
2023/08/02 11:40:11;;;;;;;;;0.00;0.00;;;;;;;;4782563;29;45232;-95
2023/08/02 11:42:47;;;;;;;;;0.00;0.00;;;;;;;;4788458;29;45435;-95
2023/08/02 11:45:12;;;;;;;;;0.00;0.00;;;;;;;;4775483;29;48426;-95
2023/08/02 11:47:38;;;;;;;;;0.00;0.00;;;;;;;;4777108;29;45371;-95
2023/08/02 11:50:04;;;;;;;;;0.00;0.00;;;;;;;;4782971;29;45425;-95
2023/08/02 11:52:30;;;;;;;;;0.00;0.00;;;;;;;;4790118;29;45447;-96
2023/08/02 11:54:56;;;;;;;;;0.33;0.33;;;;;;;;4794176;29;45455;-95
2023/08/02 11:57:22;;;;;;;;;0.00;0.00;;;;;;;;4792804;29;45464;-96
2023/08/02 11:59:48;;;;;;;;;0.00;0.00;;;;;;;;4781580;29;45234;-96
2023/08/02 12:02:27;;;;;;;;;0.00;0.00;;;;;;;;4775983;29;45258;-95
2023/08/02 12:04:53;;;;;;;;;0.00;0.00;;;;;;;;4776860;29;46153;-96
2023/08/02 12:07:28;;;;;;;;;0.00;0.00;;;;;;;;4791440;29;45316;-96
2023/08/02 12:09:56;;;;;;;;;0.00;0.00;;;;;;;;4793234;29;45412;-96
2023/08/02 12:12:26;;;;;;;;;0.00;0.00;;;;;;;;4781741;29;45414;-96
2023/08/02 12:14:52;;;;;;;;;0.00;0.00;;;;;;;;4794848;29;46810;-96
2023/08/02 12:17:18;;;;;;;;;0.00;0.00;;;;;;;;4782665;29;45340;-96
2023/08/02 12:19:43;;;;;;;;;0.00;0.00;;;;;;;;4780308;29;45333;-96
2023/08/02 12:22:08;;;;;;;;;0.00;0.00;;;;;;;;4778723;29;45361;-95
2023/08/02 12:24:34;;;;;;;;;0.00;0.00;;;;;;;;4777918;29;47177;-95
2023/08/02 12:27:18;;;;;;;;;0.00;0.00;;;;;;;;4800382;29;45368;-96
2023/08/02 12:29:44;;;;;;;;;0.00;0.00;;;;;;;;4777408;29;45449;-94
2023/08/02 12:32:10;;;;;;;;;0.67;0.67;;;;;;;;4794895;29;45345;-95
2023/08/02 12:34:39;;;;;;;;;0.00;0.00;;;;;;;;4785727;29;48297;-94
2023/08/02 12:37:04;;;;;;;;;0.00;0.00;;;;;;;;4792363;29;45488;-95
2023/08/02 12:39:29;;;;;;;;;0.33;0.33;;;;;;;;4794351;29;45140;-95
2023/08/02 12:41:55;;;;;;;;;0.00;0.00;;;;;;;;4778894;29;45390;-96
2023/08/02 12:44:20;;;;;;;;;0.00;0.00;;;;;;;;4806266;29;45666;-95
2023/08/02 12:46:45;;;;;;;;;0.00;0.00;;;;;;;;4778274;29;45179;-95
2023/08/02 12:49:11;;;;;;;;;0.00;0.00;;;;;;;;4801867;29;45474;-96
2023/08/02 12:51:39;;;;;;;;;0.00;0.00;;;;;;;;4778960;29;45191;-96
2023/08/02 12:54:05;;;;;;;;;0.00;0.00;;;;;;;;4811169;29;46305;-96
2023/08/02 12:56:30;;;;;;;;;0.00;0.00;;;;;;;;4781023;29;45448;-95
2023/08/02 12:58:55;;;;;;;;;0.00;0.00;;;;;;;;4782723;29;45474;-94
2023/08/02 13:01:20;;;;;;;;;0.00;0.00;;;;;;;;4782371;29;45523;-95
2023/08/02 13:03:46;;;;;;;;;0.00;0.00;;;;;;;;4811645;29;46368;-94
2023/08/02 13:06:11;;;;;;;;;0.00;0.00;;;;;;;;4801900;29;45454;-93
2023/08/02 13:08:36;;;;;;;;;0.00;0.00;;;;;;;;4779421;29;46883;-94
2023/08/02 13:11:02;;;;;;;;;0.00;0.00;;;;;;;;4800997;29;45417;-94
2023/08/02 13:13:27;;;;;;;;;2.00;0.00;;;;;;;;4777772;29;46823;-94
2023/08/02 13:15:52;;;;;;;;;0.00;0.00;;;;;;;;4780721;29;46396;-95
2023/08/02 13:18:17;;;;;;;;;0.00;0.00;;;;;;;;4777810;29;45473;-95
2023/08/02 13:20:43;;;;;;;;;0.00;0.00;;;;;;;;4782884;29;45582;-94
2023/08/02 13:23:08;;;;;;;;;0.00;0.00;;;;;;;;4776456;29;47040;-94
2023/08/02 13:25:34;;;;;;;;;0.00;0.00;;;;;;;;4782632;29;45508;-94
2023/08/02 13:28:00;;;;;;;;;0.00;0.00;;;;;;;;4783443;29;45267;-94
2023/08/02 13:30:25;;;;;;;;;0.00;0.00;;;;;;;;4777619;29;47169;-94
2023/08/02 13:32:50;;;;;;;;;0.00;0.00;;;;;;;;4796431;29;46342;-95
2023/08/02 13:35:19;;;;;;;;;0.00;0.00;;;;;;;;4781173;29;45482;-94
2023/08/02 13:37:45;;;;;;;;;0.00;0.00;;;;;;;;4776341;29;45444;-94
2023/08/02 13:40:10;;;;;;;;;0.00;0.00;;;;;;;;4798398;29;45558;-94
2023/08/02 13:42:35;;;;;;;;;0.33;0.33;;;;;;;;4792894;29;46260;-94
2023/08/02 13:45:01;;;;;;;;;0.00;0.00;;;;;;;;4787476;29;45393;-94
2023/08/02 13:47:27;;;;;;;;;0.00;0.00;;;;;;;;4810121;24;46267;-93
2023/08/02 13:49:52;;;;;;;;;0.00;0.00;;;;;;;;4798799;24;45272;-95
2023/08/02 13:54:52;;;;;;;;;0.00;0.00;;;;;;;;5120336;24;46012;-96
2023/08/02 13:57:18;;;;;;;;;0.00;0.00;;;;;;;;4758803;29;45421;-96
2023/08/02 13:59:53;;;;;;;;;0.00;0.00;;;;;;;;4752578;29;45576;-96
2023/08/02 14:02:41;;;;;;;;;0.00;0.00;;;;;;;;4839581;24;46604;-96
2023/08/02 17:48:21;;;;;;;;;;;;;;;;;;;;;
2023/08/02 18:03:31;;;;;;;;;0.67;0.67;;;;;;;;5079641;24;46292;-96
2023/08/02 19:51:32;;;;;;;;;3.00;3.00;;;;;;;;4825344;24;45561;-94
2023/08/02 19:54:21;;;;;;;;;;;;;;;;;;;;;
2023/08/02 19:57:09;;;;;;;;;;;;;;;;;;;;;
2023/08/02 19:59:35;;;;;;;;;2.00;2.00;;;;;;;;4748648;29;65784;-93
2023/08/02 20:02:03;;;;;;;;;1.33;1.33;;;;;;;;4755319;29;47003;-94
2023/08/02 20:04:28;;;;;;;;;2.00;1.00;;;;;;;;4756963;29;45480;-94
2023/08/02 20:07:03;;;;;;;;;0.00;0.00;;;;;;;;4755888;29;45480;-94
2023/08/02 20:09:28;;;;;;;;;1.00;1.00;;;;;;;;4748135;29;45689;-94
2023/08/02 20:12:00;;;;;;;;;0.67;0.67;;;;;;;;4746725;29;47413;-94
2023/08/02 20:14:26;;;;;;;;;0.00;0.00;;;;;;;;4746965;29;45589;-95
2023/08/02 20:16:51;;;;;;;;;0.00;0.00;;;;;;;;4734805;29;45470;-95
2023/08/02 20:19:27;;;;;;;;;2.67;2.00;;;;;;;;4749824;29;45570;-95
2023/08/02 20:21:52;;;;;;;;;1.67;1.67;;;;;;;;4748662;29;45590;-95
2023/08/02 20:24:27;;;;;;;;;1.33;1.33;;;;;;;;4747212;29;45581;-96
2023/08/02 20:27:03;;;;;;;;;0.33;0.33;;;;;;;;4750156;29;45503;-95
2023/08/02 20:29:46;;;;;;;;;1.00;1.00;;;;;;;;4750616;29;45571;-95
2023/08/02 20:39:31;;;;;;;;;;;;;;;;;;;;;
2023/08/02 20:42:48;;;;;;;;;;;;;;;;;;;;;
2023/08/02 20:45:13;;;;;;;;;0.00;0.00;;;;;;;;4691131;30;45523;-95
2023/08/02 20:48:36;;;;;;;;;;;;;;;;;;;;;
2023/08/02 20:51:02;;;;;;;;;0.67;0.67;;;;;;;;4642339;30;68573;-95
2023/08/02 20:53:27;;;;;;;;;1.33;1.33;;;;;;;;4641853;30;45645;-94
2023/08/02 21:31:11;;;;;;;;;0.50;0.50;;;;;;;;2;234072480;234072480;-94
2023/08/02 21:48:29;;;;;;;;;2.50;2.50;;;;;;;;2;234075244;234075244;-93
2023/08/02 21:57:50;;;;;;;;;2.00;2.00;;;;;;;;2;279088568;279088568;-94
2023/08/02 22:05:25;;;;;;;;;0.00;0.00;;;;;;;;2;234075413;234075413;-94
2023/08/02 22:23:07;;;;;;;;;;;;;;;;;;;;;
2023/08/02 22:32:30;;;;;;;;;0.50;0.50;;;;;;;;2;279115237;279115237;-96
2023/08/02 22:40:17;;;;;;;;;0.50;0.50;;;;;;;;2;234075469;234075469;-94
2023/08/02 22:49:35;;;;;;;;;;;;;;;;;;;;;
2023/08/02 22:57:28;;;;;;;;;1.50;1.50;;;;;;;;2;234099829;234099829;-95
2023/08/02 23:06:39;;;;;;;;;1.50;1.50;;;;;;;;2;279085037;279085037;-94
2023/08/02 23:14:19;;;;;;;;;3.50;3.50;;;;;;;;2;234072504;234072504;-94
2023/08/02 23:23:31;;;;;;;;;2.00;2.00;;;;;;;;2;279081873;279081873;-94
2023/08/02 23:31:19;;;;;;;;;6.00;6.00;;;;;;;;2;234070495;234070495;-94
2023/08/02 23:40:23;;;;;;;;;1.00;1.00;;;;;;;;2;279086821;279086821;-94
2023/08/02 23:48:03;;;;;;;;;2.50;2.50;;;;;;;;2;234072097;234072097;-94
2023/08/02 23:57:03;;;;;;;;;4.50;4.50;;;;;;;;2;279083641;279083641;-93
